createdAt,value
2017-05-21T00:01:23.997Z,2.50
2017-05-21T00:03:52.962Z,2.43
2017-05-21T00:06:21.948Z,4.83
2017-05-21T00:08:50.956Z,3.73
2017-05-21T00:11:19.939Z,4.65
2017-05-21T00:13:48.914Z,2.57
2017-05-21T00:16:17.894Z,2.60
2017-05-21T00:18:46.887Z,3.17
2017-05-21T00:21:15.132Z,3.53
2017-05-21T00:23:44.097Z,4.20
2017-05-21T00:26:13.143Z,4.82
2017-05-21T00:28:42.134Z,3.05
2017-05-21T00:31:11.130Z,3.83
2017-05-21T00:33:40.000Z,6.93
2017-05-21T00:36:09.030Z,3.22
2017-05-21T00:38:37.987Z,2.58
2017-05-21T00:41:06.980Z,2.40
2017-05-21T00:43:35.937Z,2.45
2017-05-21T00:46:05.195Z,3.65
2017-05-21T00:48:34.174Z,6.17
2017-05-21T00:51:03.129Z,3.00
2017-05-21T00:53:32.127Z,2.58
2017-05-21T00:56:01.078Z,2.65
2017-05-21T00:58:30.068Z,3.75
2017-05-21T01:00:59.053Z,3.67
2017-05-21T01:03:28.046Z,2.33
2017-05-21T01:05:57.022Z,3.73
2017-05-21T01:08:26.118Z,3.30
2017-05-21T01:10:55.038Z,3.05
2017-05-21T01:13:24.028Z,5.40
2017-05-21T01:15:53.000Z,3.65
2017-05-21T01:18:21.991Z,2.95
2017-05-21T01:20:50.975Z,2.68
2017-05-21T01:23:20.504Z,3.85
2017-05-21T01:25:49.570Z,6.48
2017-05-21T01:28:18.563Z,3.05
2017-05-21T01:30:46.771Z,6.25
2017-05-21T01:33:15.785Z,2.98
2017-05-21T01:35:44.754Z,4.60
2017-05-21T01:38:13.761Z,3.35
2017-05-21T01:40:42.736Z,3.97
2017-05-21T01:43:11.716Z,4.02
2017-05-21T01:45:40.679Z,4.95
2017-05-21T01:48:09.682Z,3.32
2017-05-21T01:50:38.653Z,4.42
2017-05-21T01:53:07.630Z,2.67
2017-05-21T01:55:36.572Z,3.73
2017-05-21T01:58:05.582Z,3.55
2017-05-21T02:00:34.566Z,3.72
2017-05-21T02:03:03.562Z,2.62
2017-05-21T02:05:32.517Z,4.50
2017-05-21T02:08:01.551Z,2.92
2017-05-21T02:10:30.532Z,4.07
2017-05-21T02:12:59.519Z,4.52
2017-05-21T02:15:28.474Z,2.58
2017-05-21T02:17:57.498Z,4.80
2017-05-21T02:20:26.504Z,7.20
2017-05-21T02:22:55.510Z,2.58
2017-05-21T02:25:24.474Z,5.15
2017-05-21T02:27:53.459Z,3.50
2017-05-21T02:30:22.549Z,5.20
2017-05-21T02:32:51.535Z,6.10
2017-05-21T02:35:20.492Z,3.77
2017-05-21T02:37:49.473Z,2.85
2017-05-21T02:40:18.395Z,3.03
2017-05-21T02:42:47.376Z,3.45
2017-05-21T02:45:16.357Z,4.12
2017-05-21T02:47:45.258Z,4.90
2017-05-21T02:50:14.263Z,2.75
2017-05-21T02:52:43.278Z,2.97
2017-05-21T02:55:12.258Z,5.77
2017-05-21T02:57:41.469Z,4.12
2017-05-21T03:00:10.444Z,7.13
2017-05-21T03:02:39.428Z,4.50
2017-05-21T03:05:08.412Z,3.10
2017-05-21T03:07:37.397Z,3.27
2017-05-21T03:10:06.380Z,9.67
2017-05-21T03:12:35.372Z,6.87
2017-05-21T03:15:04.376Z,4.45
2017-05-21T03:17:33.331Z,4.60
2017-05-21T03:20:02.312Z,4.22
2017-05-21T03:22:31.280Z,3.23
2017-05-21T03:25:00.288Z,5.65
2017-05-21T03:27:29.262Z,8.83
2017-05-21T03:29:58.250Z,6.75
2017-05-21T03:32:33.790Z,5.12
2017-05-21T03:35:02.802Z,3.52
2017-05-21T03:37:31.758Z,3.15
2017-05-21T03:40:00.741Z,4.55
2017-05-21T03:42:29.729Z,3.58
2017-05-21T03:44:58.643Z,3.85
2017-05-21T03:47:27.641Z,3.42
2017-05-21T03:49:56.636Z,3.25
2017-05-21T03:52:25.601Z,4.07
2017-05-21T03:54:54.588Z,5.37
2017-05-21T03:57:23.565Z,12.88
2017-05-21T03:59:52.544Z,4.78
2017-05-21T04:02:21.518Z,4.80
2017-05-21T04:04:50.481Z,4.38
2017-05-21T04:07:19.452Z,5.40
2017-05-21T04:09:48.448Z,4.58
2017-05-21T04:12:17.414Z,5.17
2017-05-21T04:14:46.398Z,5.63
2017-05-21T04:17:15.353Z,6.55
2017-05-21T04:19:44.336Z,5.17
2017-05-21T04:22:13.337Z,3.67
2017-05-21T04:24:42.324Z,4.45
2017-05-21T04:27:11.281Z,6.32
2017-05-21T04:29:40.324Z,4.75
2017-05-21T04:32:09.292Z,9.10
2017-05-21T04:34:38.282Z,6.75
2017-05-21T04:37:06.495Z,5.82
2017-05-21T04:39:35.535Z,6.40
2017-05-21T04:42:04.523Z,4.18
2017-05-21T04:44:33.575Z,6.82
2017-05-21T04:47:02.536Z,4.67
2017-05-21T04:49:31.511Z,3.62
2017-05-21T04:52:00.496Z,9.55
2017-05-21T04:54:29.513Z,4.75
2017-05-21T04:56:58.494Z,9.18
2017-05-21T04:59:27.466Z,4.73
2017-05-21T05:01:56.457Z,6.22
2017-05-21T05:04:25.496Z,11.85
2017-05-21T05:06:54.485Z,4.08
2017-05-21T05:09:23.484Z,10.72
2017-05-21T05:11:52.448Z,3.42
2017-05-21T05:14:21.651Z,5.27
2017-05-21T05:16:50.630Z,4.83
2017-05-21T05:19:19.639Z,4.00
2017-05-21T05:21:48.635Z,5.00
2017-05-21T05:24:17.590Z,5.38
2017-05-21T05:26:46.575Z,7.73
2017-05-21T05:29:15.531Z,5.98
2017-05-21T05:31:44.549Z,5.60
2017-05-21T05:34:12.770Z,7.30
2017-05-21T05:36:41.759Z,5.28
2017-05-21T05:39:10.718Z,4.02
2017-05-21T05:41:39.705Z,3.68
2017-05-21T05:44:08.667Z,6.08
2017-05-21T05:46:37.650Z,5.57
2017-05-21T05:49:06.609Z,5.23
2017-05-21T05:51:35.599Z,4.02
2017-05-21T05:54:03.839Z,4.87
2017-05-21T05:56:32.150Z,5.55
2017-05-21T05:59:01.108Z,4.23
2017-05-21T06:01:29.387Z,4.22
2017-05-21T06:03:58.364Z,4.90
2017-05-21T06:06:27.395Z,5.07
2017-05-21T06:08:56.437Z,4.68
2017-05-21T06:11:25.433Z,4.60
2017-05-21T06:13:54.433Z,7.05
2017-05-21T06:16:23.433Z,3.76
2017-05-21T06:18:52.415Z,4.12
2017-05-21T06:21:21.447Z,4.44
2017-05-21T06:23:50.326Z,5.75
2017-05-21T06:26:19.356Z,6.73
2017-05-21T06:28:48.338Z,5.78
2017-05-21T06:31:17.339Z,5.86
2017-05-21T06:33:46.317Z,4.30
2017-05-21T06:36:15.310Z,8.34
2017-05-21T06:38:44.287Z,8.08
2017-05-21T06:41:13.266Z,4.56
2017-05-21T06:43:42.219Z,8.28
2017-05-21T06:46:11.218Z,6.94
2017-05-21T06:48:40.196Z,4.72
2017-05-21T06:51:09.232Z,4.94
2017-05-21T06:53:38.213Z,8.50
2017-05-21T06:56:07.208Z,5.70
2017-05-21T06:58:36.191Z,4.82
2017-05-21T07:01:05.183Z,7.52
2017-05-21T07:03:34.156Z,4.00
2017-05-21T07:06:03.177Z,6.44
2017-05-21T07:08:32.139Z,3.80
2017-05-21T07:11:01.133Z,4.14
2017-05-21T07:13:30.087Z,6.06
2017-05-21T07:15:59.093Z,3.88
2017-05-21T07:18:27.980Z,5.12
2017-05-21T07:20:57.049Z,6.42
2017-05-21T07:23:26.076Z,3.64
2017-05-21T07:25:55.079Z,5.42
2017-05-21T07:28:24.065Z,8.32
2017-05-21T07:30:53.050Z,9.16
2017-05-21T07:33:22.045Z,5.42
2017-05-21T07:35:51.046Z,6.08
2017-05-21T07:38:20.036Z,5.36
2017-05-21T07:40:48.998Z,6.76
2017-05-21T07:43:17.973Z,5.16
2017-05-21T07:45:46.991Z,5.50
2017-05-21T07:48:15.952Z,4.80
2017-05-21T07:50:44.893Z,4.56
2017-05-21T07:53:13.932Z,6.42
2017-05-21T07:55:42.967Z,4.42
2017-05-21T07:58:11.965Z,6.02
2017-05-21T08:00:40.926Z,5.74
2017-05-21T08:03:09.931Z,4.58
2017-05-21T08:05:38.830Z,7.12
2017-05-21T08:08:07.862Z,6.30
2017-05-21T08:10:36.837Z,9.08
2017-05-21T08:13:05.731Z,4.92
2017-05-21T08:15:34.789Z,5.16
2017-05-21T08:18:03.783Z,5.84
2017-05-21T08:20:32.758Z,4.38
2017-05-21T08:23:01.754Z,5.80
2017-05-21T08:25:30.765Z,6.12
2017-05-21T08:27:59.746Z,4.70
2017-05-21T08:30:28.715Z,4.70
2017-05-21T08:32:57.724Z,6.20
2017-05-21T08:35:26.684Z,6.16
2017-05-21T08:37:55.711Z,33.40
2017-05-21T08:40:24.736Z,6.36
2017-05-21T08:42:53.683Z,3.92
2017-05-21T08:45:22.655Z,5.76
2017-05-21T08:47:50.885Z,9.24
2017-05-21T08:50:19.858Z,5.74
2017-05-21T08:52:49.423Z,5.10
2017-05-21T08:55:21.680Z,5.78
2017-05-21T08:57:51.276Z,4.12
2017-05-21T09:00:21.809Z,7.58
2017-05-21T09:02:52.135Z,4.42
2017-05-21T09:05:21.558Z,3.98
2017-05-21T09:07:51.958Z,8.04
2017-05-21T09:10:24.456Z,5.48
2017-05-21T09:12:54.071Z,4.86
2017-05-21T09:15:24.438Z,4.02
2017-05-21T09:17:54.061Z,5.64
2017-05-21T09:20:23.054Z,5.42
2017-05-21T09:22:52.043Z,7.28
2017-05-21T09:25:21.012Z,6.14
2017-05-21T09:27:49.274Z,4.50
2017-05-21T09:30:18.268Z,5.58
2017-05-21T09:32:47.258Z,8.40
2017-05-21T09:35:16.660Z,5.72
2017-05-21T09:37:45.954Z,8.66
2017-05-21T09:40:14.933Z,3.20
2017-05-21T09:42:43.903Z,4.20
2017-05-21T09:45:12.901Z,4.64
2017-05-21T09:47:42.146Z,7.92
2017-05-21T09:50:11.089Z,4.44
2017-05-21T09:52:40.073Z,6.06
2017-05-21T09:55:09.064Z,4.76
2017-05-21T09:57:38.165Z,3.34
2017-05-21T10:00:07.192Z,5.22
2017-05-21T10:02:36.184Z,7.36
2017-05-21T10:05:05.513Z,4.42
2017-05-21T10:07:33.725Z,6.16
2017-05-21T10:10:02.747Z,4.40
2017-05-21T10:12:32.006Z,5.08
2017-05-21T10:15:01.097Z,6.90
2017-05-21T10:17:30.081Z,4.86
2017-05-21T10:19:59.404Z,5.60
2017-05-21T10:22:28.396Z,13.62
2017-05-21T10:24:57.836Z,5.64
2017-05-21T10:27:27.180Z,5.30
2017-05-21T10:29:56.171Z,6.14
2017-05-21T10:32:25.143Z,14.80
2017-05-21T10:34:54.454Z,3.70
2017-05-21T10:37:23.432Z,5.14
2017-05-21T10:39:52.423Z,4.90
2017-05-21T10:42:21.712Z,5.56
2017-05-21T10:44:50.700Z,3.78
2017-05-21T10:47:19.717Z,5.86
2017-05-21T10:49:49.087Z,4.34
2017-05-21T10:52:18.056Z,4.72
2017-05-21T10:54:47.043Z,5.90
2017-05-21T10:57:16.373Z,3.82
2017-05-21T10:59:45.357Z,4.02
2017-05-21T11:02:14.359Z,4.70
2017-05-21T11:04:43.661Z,3.60
2017-05-21T11:07:12.642Z,3.34
2017-05-21T11:09:41.632Z,5.46
2017-05-21T11:12:10.873Z,3.40
2017-05-21T11:14:39.856Z,5.58
2017-05-21T11:17:09.054Z,3.48
2017-05-21T11:19:38.391Z,3.70
2017-05-21T11:22:07.373Z,3.56
2017-05-21T11:24:36.335Z,6.54
2017-05-21T11:27:05.615Z,3.80
2017-05-21T11:29:34.561Z,7.26
2017-05-21T11:32:03.564Z,9.82
2017-05-21T11:34:32.770Z,3.82
2017-05-21T11:37:01.730Z,4.14
2017-05-21T11:39:30.700Z,5.12
2017-05-21T11:41:59.958Z,2.58
2017-05-21T11:44:28.909Z,4.68
2017-05-21T11:46:57.936Z,3.72
2017-05-21T11:49:27.183Z,4.14
2017-05-21T11:51:56.149Z,3.22
2017-05-21T11:54:25.128Z,7.42
2017-05-21T11:56:54.389Z,3.46
2017-05-21T11:59:23.358Z,6.98
2017-05-21T12:01:52.315Z,4.80
2017-05-21T12:04:21.583Z,3.66
2017-05-21T12:06:50.783Z,6.56
2017-05-21T12:09:19.742Z,5.20
2017-05-21T12:11:48.985Z,3.60
2017-05-21T12:14:17.964Z,3.38
2017-05-21T12:16:46.943Z,5.24
2017-05-21T12:19:16.268Z,3.08
2017-05-21T12:21:45.233Z,5.48
2017-05-21T12:24:14.181Z,3.78
2017-05-21T12:26:43.440Z,3.58
2017-05-21T12:29:12.419Z,4.50
2017-05-21T12:31:41.393Z,2.36
2017-05-21T12:34:11.051Z,6.26
2017-05-21T12:36:40.051Z,5.80
2017-05-21T12:39:09.036Z,2.74
2017-05-21T12:41:38.305Z,5.28
2017-05-21T12:44:07.285Z,6.70
2017-05-21T12:46:36.249Z,8.76
2017-05-21T12:49:05.609Z,194.80
2017-05-21T12:51:34.625Z,181.64
2017-05-21T12:54:03.604Z,267.66
2017-05-21T12:56:32.865Z,101.14
2017-05-21T12:59:01.877Z,72.08
2017-05-21T13:01:30.834Z,12.62
2017-05-21T13:04:00.140Z,110.22
2017-05-21T13:06:29.063Z,53.96
2017-05-21T13:08:58.035Z,18.30
2017-05-21T13:11:27.360Z,29.84
2017-05-21T13:13:56.338Z,66.40
2017-05-21T13:16:25.286Z,27.92
2017-05-21T13:18:54.509Z,12.50
2017-05-21T13:21:23.501Z,2.94
2017-05-21T13:23:52.467Z,4.42
2017-05-21T13:26:21.784Z,6.30
2017-05-21T13:28:50.729Z,5.84
2017-05-21T13:31:19.718Z,9.18
2017-05-21T13:33:48.972Z,8.86
2017-05-21T13:36:17.974Z,5.78
2017-05-21T13:38:46.970Z,4.42
2017-05-21T13:41:16.225Z,3.82
2017-05-21T13:43:45.216Z,7.96
2017-05-21T13:46:14.182Z,6.04
2017-05-21T13:48:43.437Z,3.22
2017-05-21T13:51:12.413Z,8.98
2017-05-21T13:53:41.372Z,3.32
2017-05-21T13:56:10.724Z,4.76
2017-05-21T13:58:44.093Z,4.16
2017-05-21T14:01:18.601Z,6.38
2017-05-21T14:03:52.391Z,4.06
2017-05-21T14:06:21.916Z,3.10
2017-05-21T14:08:51.920Z,4.06
2017-05-21T14:11:21.728Z,10.92
2017-05-21T14:13:51.177Z,4.22
2017-05-21T14:16:20.171Z,3.66
2017-05-21T14:18:49.158Z,2.96
2017-05-21T14:21:18.532Z,3.12
2017-05-21T14:23:47.524Z,5.12
2017-05-21T14:26:15.732Z,2.98
2017-05-21T14:28:45.029Z,4.14
2017-05-21T14:31:14.028Z,3.64
2017-05-21T14:33:42.994Z,4.80
2017-05-21T14:36:12.268Z,6.30
2017-05-21T14:38:41.581Z,4.08
2017-05-21T14:41:10.564Z,3.50
2017-05-21T14:43:39.852Z,5.48
2017-05-21T14:46:08.805Z,4.02
2017-05-21T14:48:37.870Z,7.02
2017-05-21T14:51:07.234Z,6.76
2017-05-21T14:53:36.190Z,9.92
2017-05-21T14:56:05.164Z,4.02
2017-05-21T14:58:34.424Z,4.84
2017-05-21T15:01:03.408Z,4.88
2017-05-21T15:03:32.370Z,4.16
2017-05-21T15:06:01.704Z,4.58
2017-05-21T15:08:30.662Z,7.62
2017-05-21T15:10:59.635Z,4.02
2017-05-21T15:13:28.867Z,7.82
2017-05-21T15:15:57.828Z,3.38
2017-05-21T15:18:26.829Z,4.96
2017-05-21T15:20:56.199Z,5.40
2017-05-21T15:23:25.178Z,3.44
2017-05-21T15:25:54.130Z,3.80
2017-05-21T15:28:23.410Z,3.08
2017-05-21T15:30:52.370Z,3.88
2017-05-21T15:33:21.465Z,4.02
2017-05-21T15:35:50.717Z,4.62
2017-05-21T15:38:19.670Z,5.48
2017-05-21T15:40:48.640Z,5.14
2017-05-21T15:43:17.890Z,3.74
2017-05-21T15:45:46.862Z,5.02
2017-05-21T15:48:15.823Z,4.68
2017-05-21T15:50:45.084Z,3.40
2017-05-21T15:53:13.969Z,5.28
2017-05-21T15:55:42.990Z,3.70
2017-05-21T15:58:12.258Z,2.64
2017-05-21T16:00:41.208Z,4.44
2017-05-21T16:03:10.326Z,2.72
2017-05-21T16:05:39.662Z,8.94
2017-05-21T16:08:08.637Z,4.04
2017-05-21T16:10:37.592Z,3.48
2017-05-21T16:13:06.909Z,2.54
2017-05-21T16:15:35.902Z,3.48
2017-05-21T16:18:04.876Z,3.04
2017-05-21T16:20:34.142Z,9.60
2017-05-21T16:23:03.127Z,8.72
2017-05-21T16:25:32.216Z,4.64
2017-05-21T16:28:01.577Z,3.98
2017-05-21T16:30:30.557Z,10.74
2017-05-21T16:32:59.527Z,5.04
2017-05-21T16:35:28.794Z,3.62
2017-05-21T16:37:57.769Z,4.44
2017-05-21T16:40:26.741Z,3.58
2017-05-21T16:42:56.063Z,4.90
2017-05-21T16:45:25.049Z,3.44
2017-05-21T16:47:54.013Z,3.36
2017-05-21T16:50:23.346Z,6.00
2017-05-21T16:52:52.247Z,7.10
2017-05-21T16:55:21.232Z,6.76
2017-05-21T16:57:50.511Z,4.26
2017-05-21T17:00:19.780Z,4.16
2017-05-21T17:02:48.780Z,2.72
2017-05-21T17:05:18.198Z,5.86
2017-05-21T17:07:47.174Z,7.68
2017-05-21T17:10:16.142Z,6.08
2017-05-21T17:12:45.359Z,4.88
2017-05-21T17:15:14.346Z,3.50
2017-05-21T17:17:43.319Z,5.06
2017-05-21T17:20:12.647Z,4.58
2017-05-21T17:22:41.621Z,4.50
2017-05-21T17:25:10.594Z,3.86
2017-05-21T17:27:39.851Z,4.14
2017-05-21T17:30:08.863Z,4.74
2017-05-21T17:32:37.828Z,3.86
2017-05-21T17:35:07.127Z,4.14
2017-05-21T17:37:36.117Z,7.30
2017-05-21T17:40:05.109Z,8.22
2017-05-21T17:42:34.434Z,3.62
2017-05-21T17:45:03.393Z,5.52
2017-05-21T17:47:32.405Z,3.90
2017-05-21T17:50:01.694Z,7.36
2017-05-21T17:52:30.653Z,5.82
2017-05-21T17:54:59.627Z,8.26
2017-05-21T17:57:28.864Z,8.04
2017-05-21T17:59:57.841Z,3.72
2017-05-21T18:02:26.870Z,4.24
2017-05-21T18:04:55.913Z,6.62
2017-05-21T18:07:24.910Z,5.82
2017-05-21T18:09:54.257Z,4.52
2017-05-21T18:12:23.236Z,6.80
2017-05-21T18:14:52.201Z,8.34
2017-05-21T18:17:21.491Z,3.80
2017-05-21T18:19:50.455Z,4.06
2017-05-21T18:22:19.447Z,13.36
2017-05-21T18:24:48.797Z,5.00
2017-05-21T18:27:17.905Z,7.04
2017-05-21T18:29:46.874Z,4.82
2017-05-21T18:32:16.262Z,4.36
2017-05-21T18:34:45.286Z,5.50
2017-05-21T18:37:14.267Z,4.88
2017-05-21T18:39:43.526Z,6.16
2017-05-21T18:42:12.489Z,5.66
2017-05-21T18:44:41.653Z,8.20
2017-05-21T18:47:11.023Z,7.78
2017-05-21T18:49:40.017Z,4.32
2017-05-21T18:52:09.033Z,9.68
2017-05-21T18:54:38.385Z,5.68
2017-05-21T18:57:07.368Z,6.56
2017-05-21T18:59:36.360Z,10.00
2017-05-21T19:02:05.725Z,13.24
2017-05-21T19:04:34.709Z,9.18
2017-05-21T19:07:03.706Z,10.96
2017-05-21T19:09:33.007Z,6.24
2017-05-21T19:12:02.006Z,6.40
2017-05-21T19:14:30.990Z,6.26
2017-05-21T19:17:00.357Z,7.46
2017-05-21T19:19:29.291Z,7.14
2017-05-21T19:21:58.313Z,6.52
2017-05-21T19:24:27.571Z,5.16
2017-05-21T19:26:56.600Z,8.76
2017-05-21T19:29:25.676Z,8.26
2017-05-21T19:31:54.974Z,6.58
2017-05-21T19:34:23.943Z,7.26
2017-05-21T19:36:52.950Z,5.72
2017-05-21T19:39:22.320Z,6.84
2017-05-21T19:41:51.298Z,5.36
2017-05-21T19:44:20.296Z,9.38
2017-05-21T19:46:49.576Z,10.20
2017-05-21T19:49:18.578Z,6.08
2017-05-21T19:51:47.602Z,7.50
2017-05-21T19:54:16.863Z,7.52
2017-05-21T19:56:45.891Z,8.04
2017-05-21T19:59:14.926Z,7.86
2017-05-21T20:01:44.244Z,6.24
2017-05-21T20:04:13.250Z,8.18
2017-05-21T20:06:42.266Z,9.84
2017-05-21T20:09:11.509Z,5.78
2017-05-21T20:11:40.481Z,5.08
2017-05-21T20:14:09.469Z,7.56
2017-05-21T20:16:38.686Z,6.18
2017-05-21T20:19:07.656Z,5.72
2017-05-21T20:21:36.718Z,5.74
2017-05-21T20:24:05.983Z,8.70
2017-05-21T20:26:35.139Z,5.60
2017-05-21T20:29:04.123Z,7.38
2017-05-21T20:31:33.326Z,5.94
2017-05-21T20:34:02.325Z,5.60
2017-05-21T20:36:31.314Z,6.18
2017-05-21T20:39:00.679Z,8.36
2017-05-21T20:41:29.729Z,5.84
2017-05-21T20:43:58.709Z,7.48
2017-05-21T20:46:27.930Z,7.10
2017-05-21T20:48:57.184Z,6.48
2017-05-21T20:51:26.119Z,8.38
2017-05-21T20:53:55.421Z,6.78
2017-05-21T20:56:24.539Z,7.48
2017-05-21T20:58:53.532Z,7.36
2017-05-21T21:01:22.909Z,5.80
2017-05-21T21:03:51.892Z,11.40
2017-05-21T21:06:20.874Z,10.04
2017-05-21T21:08:50.179Z,9.36
2017-05-21T21:11:19.151Z,10.50
2017-05-21T21:13:48.120Z,9.95
2017-05-21T21:16:17.420Z,7.43
2017-05-21T21:18:46.396Z,8.00
2017-05-21T21:21:15.376Z,7.73
2017-05-21T21:23:44.543Z,11.18
2017-05-21T21:26:13.543Z,6.23
2017-05-21T21:28:42.544Z,8.42
2017-05-21T21:31:11.912Z,9.42
2017-05-21T21:33:40.874Z,10.72
2017-05-21T21:36:09.862Z,8.92
2017-05-21T21:38:39.099Z,13.40
2017-05-21T21:41:07.341Z,10.88
2017-05-21T21:43:36.291Z,8.58
2017-05-21T21:46:05.550Z,11.13
2017-05-21T21:48:34.530Z,14.93
2017-05-21T21:51:03.490Z,10.83
2017-05-21T21:53:32.754Z,9.50
2017-05-21T21:56:01.762Z,12.40
2017-05-21T21:58:30.801Z,8.12
2017-05-21T22:01:00.538Z,7.63
2017-05-21T22:03:29.543Z,9.28
2017-05-21T22:05:58.647Z,6.85
2017-05-21T22:08:27.964Z,10.37
2017-05-21T22:10:56.959Z,9.95
2017-05-21T22:13:25.939Z,8.83
2017-05-21T22:15:55.140Z,7.15
2017-05-21T22:18:31.132Z,10.52
2017-05-21T22:21:00.444Z,8.77
2017-05-21T22:23:32.142Z,9.20
2017-05-21T22:26:01.496Z,8.98
2017-05-21T22:28:30.463Z,12.62
2017-05-21T22:30:59.483Z,10.27
2017-05-21T22:33:28.709Z,15.30
2017-05-21T22:35:57.675Z,13.57
2017-05-21T22:38:26.663Z,10.23
2017-05-21T22:40:55.965Z,10.57
2017-05-21T22:43:24.881Z,10.20
2017-05-21T22:45:53.860Z,11.60
2017-05-21T22:48:23.150Z,9.32
2017-05-21T22:50:52.098Z,9.75
2017-05-21T22:53:21.084Z,13.10
2017-05-21T22:55:50.423Z,13.10
2017-05-21T22:58:19.372Z,9.25
2017-05-21T23:00:48.325Z,10.62
2017-05-21T23:03:17.569Z,13.77
2017-05-21T23:05:46.517Z,11.15
2017-05-21T23:08:15.486Z,10.07
2017-05-21T23:10:44.694Z,11.10
2017-05-21T23:13:13.669Z,10.58
2017-05-21T23:15:42.652Z,14.85
2017-05-21T23:18:11.890Z,14.23
2017-05-21T23:20:40.882Z,11.25
2017-05-21T23:23:09.854Z,10.78
2017-05-21T23:25:39.098Z,15.70
2017-05-21T23:28:08.073Z,14.37
2017-05-21T23:30:37.066Z,11.95
2017-05-21T23:33:06.309Z,11.63
2017-05-21T23:35:35.295Z,13.55
2017-05-21T23:38:04.274Z,17.27
2017-05-21T23:40:33.482Z,12.75
2017-05-21T23:43:02.446Z,14.98
2017-05-21T23:45:31.425Z,16.25
2017-05-21T23:48:00.671Z,16.92
2017-05-21T23:50:29.635Z,17.02
2017-05-21T23:52:58.601Z,19.15
2017-05-21T23:55:27.827Z,16.32
2017-05-21T23:57:56.788Z,20.08
